Time;durP1;ratioP1;P1;durP2;ratioP2;P2;SDS_P1;SDS_P2;PMS_P1;PMS_P2;Temp;Humidity;BMP_temperature;BMP_pressure;BME280_temperature;BME280_humidity;BME280_pressure;Samples;Min_cycle;Max_cycle;Signal;HPM_P1;HPM_P2
2022/01/27 00:00:36;;;;;;;60.85;22.25;;;;;;;-2.74;100.00;-6311.70;1710684;82;28164;-59
2022/01/27 00:05:17;;;;;;;;;;;;;;;-2.88;100.00;-5985.77;1711029;83;21146;-59
2022/01/27 00:07:39;;;;;;;65.08;24.20;;;;;;;-2.95;100.00;-5172.00;1672781;84;20415;-59
2022/01/27 00:12:38;;;;;;;73.00;27.07;;;;;;;-3.06;100.00;-4683.64;1672696;84;21498;-59
2022/01/27 00:15:10;;;;;;;88.60;32.48;;;;;;;-3.11;100.00;-4032.68;1683232;83;21120;-58
2022/01/27 00:17:41;;;;;;;69.47;26.82;;;;;;;-3.17;100.00;-3707.20;1671832;85;21174;-58
2022/01/27 00:20:07;;;;;;;80.97;28.27;;;;;;;-3.23;100.00;-3056.25;1671584;85;21005;-58
2022/01/27 00:22:34;;;;;;;86.42;30.75;;;;;;;-3.30;100.00;-2242.55;1673003;85;21442;-59
2022/01/27 00:25:05;;;;;;;44.05;17.52;;;;;;;-3.33;100.00;-1591.48;1674017;84;21457;-59
2022/01/27 00:27:33;;;;;;;34.83;14.00;;;;;;;-3.35;100.00;-1428.76;1671261;85;21107;-61
2022/01/27 00:30:03;;;;;;;30.17;12.20;;;;;;;-3.39;100.00;-1266.13;1691077;83;21111;-59
2022/01/27 00:32:31;;;;;;;33.75;12.60;;;;;;;-3.42;100.00;-1103.46;1672921;83;21056;-59
2022/01/27 00:34:59;;;;;;;30.25;11.83;;;;;;;-3.47;100.00;-778.04;1673671;84;21072;-59
2022/01/27 00:37:26;;;;;;;25.08;10.32;;;;;;;-3.50;100.00;-452.61;1669915;84;21080;-59
2022/01/27 00:39:53;;;;;;;77.50;29.63;;;;;;;-3.54;100.00;35.65;1675373;83;21068;-59
2022/01/27 00:42:19;;;;;;;68.87;26.50;;;;;;;-3.61;100.00;849.39;1675504;84;21494;-59
2022/01/27 00:44:46;;;;;;;134.70;48.10;;;;;;;-3.63;100.00;1012.04;1672398;85;21549;-59
2022/01/27 00:47:13;;;;;;;97.25;36.23;;;;;;;-3.66;100.00;1337.50;1669395;85;21034;-59
2022/01/27 00:49:39;;;;;;;60.73;23.98;;;;;;;-3.70;100.00;1662.92;1669405;85;21538;-59
2022/01/27 00:52:11;;;;;;;77.87;29.45;;;;;;;-3.70;100.00;2314.41;1674018;84;21001;-58
2022/01/27 00:54:36;;;;;;;65.93;25.80;;;;;;;-3.72;100.00;2314.26;1674349;83;21138;-60
2022/01/27 00:57:12;;;;;;;92.90;36.53;;;;;;;-3.74;100.00;2314.11;1675047;85;21033;-59
2022/01/27 01:04:35;;;;;;;120.95;43.23;;;;;;;-3.76;100.00;2639.69;1672021;84;21091;-60
2022/01/27 01:07:01;;;;;;;93.07;33.33;;;;;;;-3.77;100.00;2802.48;1670920;85;21330;-60
2022/01/27 01:10:25;;;;;;;71.73;28.60;;;;;;;-3.74;100.00;2314.11;1674381;82;21088;-60
2022/01/27 01:15:00;;;;;;;29.87;12.43;;;;;;;-3.70;100.00;1988.68;1710500;82;21068;-58
2022/01/27 01:33:13;;;;;;;106.03;37.40;;;;;;;-3.77;100.00;5573.10;1714193;83;21828;-59
2022/01/27 01:35:48;;;;;;;119.33;44.57;;;;;;;-3.75;100.00;5736.47;1711542;82;21604;-58
2022/01/27 01:38:18;;;;;;;101.30;37.45;;;;;;;-3.71;100.00;5573.96;1709583;81;21044;-58
2022/01/27 01:40:47;;;;;;;74.32;27.75;;;;;;;-3.63;100.00;4596.81;1715386;82;21135;-58
2022/01/27 01:43:14;;;;;;;129.45;46.28;;;;;;;-3.55;100.00;3619.76;1712348;82;21743;-58
2022/01/27 01:45:41;;;;;;;135.93;49.27;;;;;;;-3.49;100.00;3294.48;1712817;83;21098;-58
2022/01/27 01:48:08;;;;;;;167.45;60.90;;;;;;;-3.45;100.00;2642.96;1715073;83;20993;-58
2022/01/27 01:50:35;;;;;;;65.40;25.92;;;;;;;-3.40;100.00;2154.45;1713360;82;21073;-58
2022/01/27 01:53:02;;;;;;;120.80;42.77;;;;;;;-3.38;100.00;2154.65;1714300;82;20933;-58
2022/01/27 01:55:32;;;;;;;140.47;50.73;;;;;;;-3.37;100.00;2480.73;1715258;82;21123;-57
2022/01/27 01:57:59;;;;;;;267.30;99.85;;;;;;;-3.36;100.00;2806.85;1713579;83;21140;-58
2022/01/27 02:00:27;;;;;;;146.85;53.73;;;;;;;-3.34;100.00;2807.07;1705721;82;21084;-59
2022/01/27 02:02:54;;;;;;;125.47;47.08;;;;;;;-3.32;100.00;2807.30;1706680;83;21029;-58
2022/01/27 02:05:25;;;;;;;97.17;37.25;;;;;;;-3.32;100.00;3133.42;1666218;85;21074;-58
2022/01/27 02:08:27;;;;;;;105.92;40.90;;;;;;;-3.32;100.00;3133.36;1708974;82;21111;-58
2022/01/27 02:18:39;;;;;;;112.30;43.25;;;;;;;-3.32;100.00;4764.19;1714199;82;21044;-58
2022/01/27 02:21:06;;;;;;;79.82;30.77;;;;;;;-3.31;100.00;5090.60;1713496;82;21017;-58
2022/01/27 02:23:33;;;;;;;116.77;42.05;;;;;;;-3.28;100.00;4927.83;1715247;83;21141;-60
2022/01/27 02:26:00;;;;;;;43.75;18.07;;;;;;;-3.27;100.00;5091.20;1709062;83;21116;-61
2022/01/27 02:28:26;;;;;;;30.40;12.90;;;;;;;-3.28;100.00;5091.05;1671961;85;21344;-58
2022/01/27 02:30:53;;;;;;;56.73;22.00;;;;;;;-3.24;100.00;4928.49;1682217;85;21061;-59
2022/01/27 02:33:31;;;;;;;29.90;13.13;;;;;;;-3.22;100.00;5091.87;1712289;83;21064;-59
2022/01/27 02:35:58;;;;;;;43.85;16.85;;;;;;;-3.24;100.00;5581.17;1712095;83;21509;-58
2022/01/27 02:38:25;;;;;;;46.05;19.30;;;;;;;-3.28;100.00;6233.29;1708834;83;21317;-59
2022/01/27 02:41:00;;;;;;;37.45;15.75;;;;;;;-3.34;100.00;7374.81;1709410;82;21547;-60
2022/01/27 02:43:26;;;;;;;;;;;;;;;-3.35;100.00;7537.87;1688133;83;21032;-59
2022/01/27 02:45:57;;;;;;;29.98;10.98;;;;;;;-3.38;100.00;8680.20;1714346;83;20117;-59
2022/01/27 02:48:24;;;;;;;29.53;11.33;;;;;;;-3.41;100.00;9659.47;1715113;83;21958;-59
2022/01/27 02:50:52;;;;;;;27.27;11.45;;;;;;;-3.43;100.00;9659.01;1720991;81;21037;-59
2022/01/27 02:53:19;;;;;;;24.32;10.95;;;;;;;-3.44;100.00;9332.25;1708621;82;21065;-58
2022/01/27 02:55:46;;;;;;;24.72;9.88;;;;;;;-3.45;100.00;9005.52;1709878;83;21299;-60
2022/01/27 02:58:15;;;;;;;32.73;11.23;;;;;;;-3.47;100.00;9005.09;1707604;82;21491;-60
2022/01/27 03:00:43;;;;;;;32.65;12.05;;;;;;;-3.50;100.00;8841.16;1704373;83;21124;-59
2022/01/27 03:03:11;;;;;;;33.75;13.13;;;;;;;-3.51;100.00;8677.68;1708965;82;20944;-60
2022/01/27 03:05:37;;;;;;;30.30;13.50;;;;;;;-3.46;100.00;8025.67;1713535;82;20944;-59
2022/01/27 03:08:05;;;;;;;28.83;11.90;;;;;;;-3.41;100.00;7210.27;1710331;82;21061;-59
2022/01/27 03:10:34;;;;;;;30.20;11.93;;;;;;;-3.38;100.00;6721.27;1712773;83;21481;-59
2022/01/27 03:13:01;;;;;;;31.67;12.10;;;;;;;-3.38;100.00;6394.79;1681604;84;21478;-59
2022/01/27 03:15:29;;;;;;;27.70;11.97;;;;;;;-3.38;100.00;6557.98;1666913;84;21108;-59
2022/01/27 03:17:56;;;;;;;28.60;12.18;;;;;;;-3.41;100.00;6720.73;1673524;83;21055;-58
2022/01/27 03:20:31;;;;;;;32.57;13.23;;;;;;;-3.44;100.00;7209.80;1705752;83;21061;-59
2022/01/27 03:22:52;;;;;;;29.85;12.65;;;;;;;-3.48;100.00;7698.70;1681330;84;21044;-59
2022/01/27 03:25:19;;;;;;;30.08;12.70;;;;;;;-3.54;100.00;8350.54;1685867;83;21165;-59
2022/01/27 03:27:47;;;;;;;30.67;11.53;;;;;;;-3.59;100.00;9002.51;1670348;84;21128;-59
2022/01/27 03:30:16;;;;;;;32.93;12.55;;;;;;;-3.62;100.00;9654.94;1673326;84;21045;-58
2022/01/27 03:32:44;;;;;;;35.50;13.98;;;;;;;-3.66;100.00;10143.89;1707127;83;21596;-58
2022/01/27 03:35:11;;;;;;;30.88;12.73;;;;;;;-3.70;100.00;10306.25;1684555;83;21060;-58
2022/01/27 03:37:37;;;;;;;31.97;12.23;;;;;;;-3.76;100.00;11448.24;1678706;84;21771;-58
2022/01/27 03:40:06;;;;;;;32.63;12.50;;;;;;;-3.79;100.00;12264.23;1688739;83;21056;-58
2022/01/27 03:42:39;;;;;;;31.87;11.77;;;;;;;-3.81;100.00;12917.08;1678063;84;21092;-58
2022/01/27 03:45:01;;;;;;;28.03;10.63;;;;;;;-3.87;100.00;13569.12;1683942;84;21446;-59
2022/01/27 03:47:28;;;;;;;29.80;11.13;;;;;;;-3.90;100.00;14058.51;1674588;84;21071;-59
2022/01/27 03:49:54;;;;;;;28.37;12.43;;;;;;;-3.94;100.00;14711.21;1661846;84;22206;-58
2022/01/27 03:52:21;;;;;;;26.60;10.83;;;;;;;-3.99;100.00;15690.27;1677411;84;21470;-59
2022/01/27 03:54:48;;;;;;;25.50;10.80;;;;;;;-4.06;100.00;16505.76;1649530;85;21053;-59
2022/01/27 03:57:15;;;;;;;27.37;11.10;;;;;;;-4.13;100.00;17648.00;1662586;84;21084;-59
2022/01/27 03:59:41;;;;;;;27.23;9.73;;;;;;;-4.21;100.00;18626.61;1676827;84;21607;-60
2022/01/27 04:02:08;;;;;;;23.30;9.70;;;;;;;-4.23;100.00;19280.01;1689895;84;21125;-59
2022/01/27 04:04:35;;;;;;;23.87;9.73;;;;;;;-4.25;100.00;19606.45;1695068;83;21069;-59
2022/01/27 04:07:03;;;;;;;25.77;10.07;;;;;;;-4.25;100.00;19606.45;1700330;83;21049;-60
2022/01/27 04:09:30;;;;;;;22.13;8.83;;;;;;;-4.25;100.00;19442.84;1686624;83;21586;-59
2022/01/27 04:11:57;;;;;;;22.77;9.90;;;;;;;-4.26;100.00;19278.85;1700612;82;21070;-59
2022/01/27 04:14:23;;;;;;;28.23;9.77;;;;;;;-4.27;100.00;19278.46;1723424;82;21119;-59
2022/01/27 04:16:50;;;;;;;25.97;9.67;;;;;;;-4.28;100.00;19114.68;1721668;83;21048;-59
2022/01/27 04:19:16;;;;;;;21.97;9.13;;;;;;;-4.29;100.00;19114.30;1700317;83;21367;-59
2022/01/27 04:21:43;;;;;;;28.50;10.20;;;;;;;-4.30;100.00;19113.72;1703695;83;21810;-62
2022/01/27 04:24:11;;;;;;;27.23;10.10;;;;;;;-4.32;100.00;19113.33;1715048;82;21096;-58
2022/01/27 04:26:45;;;;;;;22.60;8.83;;;;;;;-4.30;100.00;19113.72;1720430;83;21116;-58
2022/01/27 04:29:09;;;;;;;23.80;9.90;;;;;;;-4.31;100.00;19113.53;1712171;83;21556;-59
2022/01/27 04:31:39;;;;;;;23.83;10.03;;;;;;;-4.33;100.00;19112.95;1722013;82;21162;-59
2022/01/27 04:34:04;;;;;;;20.33;8.80;;;;;;;-4.32;100.00;19113.33;1717099;82;21076;-59
2022/01/27 04:36:35;;;;;;;20.57;8.43;;;;;;;-4.33;100.00;19276.52;1716483;83;21127;-58
2022/01/27 04:39:21;;;;;;;21.93;8.13;;;;;;;-4.33;100.00;19440.10;1714233;81;21125;-58
2022/01/27 04:41:50;;;;;;;17.67;8.03;;;;;;;-4.34;100.00;19603.30;1712968;83;21123;-58
2022/01/27 04:44:22;;;;;;;20.10;8.47;;;;;;;-4.36;100.00;19929.70;1722569;82;21095;-60
2022/01/27 04:46:58;;;;;;;18.67;8.47;;;;;;;-4.39;100.00;20582.73;1714954;83;21130;-59
2022/01/27 04:49:16;;;;;;;18.25;8.48;;;;;;;-4.45;100.00;21889.60;1712705;83;21037;-59
2022/01/27 04:51:42;;;;;;;20.63;8.90;;;;;;;-4.56;100.00;24340.63;1712475;83;21755;-59
2022/01/27 04:54:17;;;;;;;20.80;8.93;;;;;;;-4.62;100.00;25812.10;1717870;81;21087;-59
2022/01/27 04:56:40;;;;;;;22.30;9.47;;;;;;;-4.67;100.00;27120.07;1717883;83;21505;-59
2022/01/27 04:59:31;;;;;;;17.30;8.33;;;;;;;-4.72;100.00;28592.79;1715147;82;21022;-58
2022/01/27 05:01:37;;;;;;;20.03;9.20;;;;;;;-4.79;100.00;30720.51;1713685;83;21115;-59
2022/01/27 05:04:09;;;;;;;25.60;9.50;;;;;;;-4.87;100.00;32520.30;1719226;82;21113;-59
2022/01/27 05:06:32;;;;;;;22.07;9.07;;;;;;;-4.90;100.00;33339.25;1720752;83;21517;-61
2022/01/27 05:08:59;;;;;;;17.70;8.67;;;;;;;-4.91;100.00;33831.32;1723011;82;21020;-59
2022/01/27 05:11:30;;;;;;;20.20;9.50;;;;;;;-4.91;100.00;33666.87;1694171;83;21223;-60
2022/01/27 05:14:05;;;;;;;22.83;9.03;;;;;;;-4.90;100.00;33503.37;1677364;84;21053;-59
2022/01/27 05:16:27;;;;;;;21.60;8.50;;;;;;;-4.92;100.00;33994.83;1693395;83;21124;-60
2022/01/27 05:18:54;;;;;;;21.30;8.63;;;;;;;-4.96;100.00;35798.25;1690060;84;21016;-60
2022/01/27 05:21:22;;;;;;;19.13;9.13;;;;;;;-5.02;100.00;38093.90;1675410;84;21641;-60
2022/01/27 05:23:48;;;;;;;17.27;7.53;;;;;;;-5.05;100.00;39242.16;1675217;84;21112;-65
2022/01/27 05:26:15;;;;;;;23.40;8.77;;;;;;;-5.08;100.00;40226.28;1685775;83;21069;-59
2022/01/27 05:28:41;;;;;;;22.57;9.10;;;;;;;-5.09;100.00;40883.21;1691618;84;21601;-58
2022/01/27 05:31:08;;;;;;;20.97;8.57;;;;;;;-5.12;100.00;41374.28;1693481;84;21048;-59
2022/01/27 05:33:35;;;;;;;23.80;9.83;;;;;;;-5.14;100.00;42359.57;1678933;84;22159;-59
2022/01/27 05:36:01;;;;;;;20.73;7.30;;;;;;;-5.20;100.00;43671.38;1681385;83;21870;-59
2022/01/27 05:38:29;;;;;;;19.03;7.83;;;;;;;-5.21;100.00;44493.78;1685186;83;21378;-58
2022/01/27 05:40:55;;;;;;;20.80;8.03;;;;;;;-5.25;100.00;46465.96;1670651;85;21204;-59
2022/01/27 05:43:22;;;;;;;23.63;9.43;;;;;;;-5.26;100.00;49924.39;1670503;85;21064;-58
2022/01/27 05:45:48;;;;;;;20.37;7.80;;;;;;;-5.27;100.00;49759.10;1672900;83;21521;-59
2022/01/27 05:48:15;;;;;;;25.30;9.97;;;;;;;-5.25;100.00;48606.87;1692906;83;21065;-59
2022/01/27 05:50:42;;;;;;;123.87;42.57;;;;;;;-5.23;100.00;47290.69;1685170;83;21105;-59
2022/01/27 05:53:10;;;;;;;71.53;27.00;;;;;;;-5.16;100.00;44826.65;1691883;83;20985;-59
2022/01/27 05:55:37;;;;;;;32.03;13.20;;;;;;;-5.15;100.00;43839.93;1682320;84;21100;-59
2022/01/27 05:58:03;;;;;;;28.63;11.03;;;;;;;-5.10;100.00;42034.06;1675785;84;21510;-59
2022/01/27 06:00:30;;;;;;;23.10;10.67;;;;;;;-5.05;100.00;41215.51;1651289;85;22236;-58
2022/01/27 06:02:57;;;;;;;23.93;9.37;;;;;;;-5.01;100.00;40231.46;1673712;84;21068;-59
2022/01/27 06:05:24;;;;;;;20.33;8.93;;;;;;;-4.91;100.00;37608.30;1699685;83;21912;-60
2022/01/27 06:07:51;;;;;;;22.00;9.43;;;;;;;-4.79;100.00;34987.99;1687283;83;21626;-60
2022/01/27 06:10:18;;;;;;;26.10;9.97;;;;;;;-4.70;100.00;33515.61;1673532;84;21089;-59
2022/01/27 06:12:52;;;;;;;62.80;25.10;;;;;;;-4.65;100.00;33190.37;1699938;83;21092;-60
2022/01/27 06:15:24;;;;;;;54.13;19.57;;;;;;;-4.59;100.00;32701.25;1710567;83;21116;-59
2022/01/27 06:17:53;;;;;;;44.93;18.43;;;;;;;-4.52;100.00;31227.91;1714275;83;21127;-59
2022/01/27 06:20:20;;;;;;;82.83;29.27;;;;;;;-4.47;100.00;30902.61;1708821;82;21552;-59
2022/01/27 06:22:47;;;;;;;50.63;19.83;;;;;;;-4.46;100.00;31559.71;1710387;83;21072;-59
2022/01/27 06:25:15;;;;;;;51.80;19.53;;;;;;;-4.42;100.00;31890.11;1713154;83;21588;-60
2022/01/27 06:27:42;;;;;;;36.10;14.47;;;;;;;-4.33;100.00;30254.24;1712976;82;21079;-60
2022/01/27 06:30:13;;;;;;;42.60;17.50;;;;;;;-4.21;100.00;28455.41;1709039;82;21218;-60
2022/01/27 06:32:41;;;;;;;92.47;33.43;;;;;;;-4.12;100.00;26491.86;1668243;85;21071;-60
2022/01/27 06:35:08;;;;;;;101.17;39.13;;;;;;;-3.98;100.00;23875.16;1678055;83;21044;-60
2022/01/27 06:37:35;;;;;;;114.03;42.35;;;;;;;-3.86;100.00;21750.16;1707771;81;21120;-59
2022/01/27 06:40:04;;;;;;;72.32;27.58;;;;;;;-3.76;100.00;20116.38;1681788;83;21178;-59
2022/01/27 06:42:31;;;;;;;146.73;51.57;;;;;;;-3.69;100.00;19463.93;1714766;81;21815;-60
2022/01/27 06:44:57;;;;;;;82.35;31.90;;;;;;;-3.64;100.00;18810.89;1706278;82;21505;-59
2022/01/27 06:47:24;;;;;;;59.70;23.12;;;;;;;-3.57;100.00;19141.06;1709837;83;21045;-60
2022/01/27 06:49:51;;;;;;;51.85;20.40;;;;;;;-3.55;100.00;20452.29;1710955;83;21036;-59
2022/01/27 06:52:20;;;;;;;39.48;15.43;;;;;;;-3.53;100.00;22091.74;1710702;82;21020;-59
2022/01/27 06:54:49;;;;;;;30.23;12.25;;;;;;;-3.58;100.00;26682.21;1715749;82;21571;-59
2022/01/27 06:57:15;;;;;;;64.63;24.13;;;;;;;-3.64;100.00;30784.96;1720476;82;21440;-59
2022/01/27 06:59:42;;;;;;;36.33;13.93;;;;;;;-3.72;100.00;39005.48;1706815;82;21295;-60
2022/01/27 07:02:09;;;;;;;41.55;15.45;;;;;;;-3.72;100.00;39005.48;1726422;81;21442;-59
2022/01/27 07:04:36;;;;;;;87.72;33.18;;;;;;;-3.66;100.00;35223.66;1706903;82;21080;-60
2022/01/27 07:07:03;;;;;;;197.60;78.65;;;;;;;-3.54;100.00;30955.12;1714660;81;21075;-59
2022/01/27 07:09:30;;;;;;;101.42;37.45;;;;;;;-3.46;100.00;29316.38;1702261;82;21059;-59
2022/01/27 07:11:57;;;;;;;69.87;25.30;;;;;;;-3.36;100.00;26529.29;1711079;81;21042;-60
2022/01/27 07:14:24;;;;;;;35.90;14.70;;;;;;;-3.24;100.00;23416.18;1710875;82;21366;-59
2022/01/27 07:16:53;;;;;;;36.60;13.63;;;;;;;-3.15;100.00;21123.61;1706889;82;21049;-59
2022/01/27 07:19:19;;;;;;;43.73;14.43;;;;;;;-3.08;100.00;19487.19;1707495;82;22103;-59
2022/01/27 07:21:46;;;;;;;30.35;12.03;;;;;;;-3.02;100.00;18506.09;1716590;81;21084;-59
2022/01/27 07:24:13;;;;;;;43.28;14.73;;;;;;;-2.96;100.00;17852.44;1699629;82;21078;-60
2022/01/27 07:26:39;;;;;;;38.75;15.78;;;;;;;-2.90;100.00;17363.20;1706454;81;21490;-58
2022/01/27 07:29:06;;;;;;;48.00;18.67;;;;;;;-2.74;100.00;15402.32;1702496;81;21077;-59
2022/01/27 07:31:34;;;;;;;33.50;13.95;;;;;;;-2.58;100.00;12786.85;1706146;82;21142;-59
2022/01/27 07:34:04;;;;;;;31.27;13.25;;;;;;;-2.40;100.00;10336.20;1702635;81;20939;-59
2022/01/27 07:36:31;;;;;;;29.20;12.65;;;;;;;-2.37;100.00;9518.77;1708641;81;21100;-58
2022/01/27 07:39:00;;;;;;;28.83;12.15;;;;;;;-2.38;100.00;9845.77;1711328;81;21056;-59
2022/01/27 07:41:26;;;;;;;36.17;13.13;;;;;;;-2.36;100.00;9846.23;1697355;82;21446;-59
2022/01/27 07:43:53;;;;;;;37.53;14.53;;;;;;;-2.30;100.00;9847.50;1703184;81;21870;-59
2022/01/27 07:46:20;;;;;;;35.90;15.13;;;;;;;-2.25;100.00;9357.61;1711937;81;21387;-59
2022/01/27 07:48:47;;;;;;;34.65;14.53;;;;;;;-2.17;100.00;8704.83;1711226;81;21101;-59
2022/01/27 07:51:14;;;;;;;39.73;15.00;;;;;;;-2.08;100.00;7724.91;1708897;82;21091;-59
2022/01/27 07:53:43;;;;;;;35.63;13.00;;;;;;;-1.97;100.00;6254.76;1664838;81;21135;-60
2022/01/27 07:56:10;;;;;;;36.73;13.65;;;;;;;-1.81;100.00;4458.36;1709417;81;21120;-60
2022/01/27 07:58:40;;;;;;;31.15;11.03;;;;;;;-1.69;100.00;3151.88;1707760;81;21107;-59
2022/01/27 08:01:08;;;;;;;51.85;12.78;;;;;;;-1.55;100.00;1845.74;1708272;81;20998;-59
2022/01/27 08:03:36;;;;;;;48.50;13.78;;;;;;;-1.41;100.00;539.44;1710001;81;21048;-59
2022/01/27 08:06:04;;;;;;;39.55;13.38;;;;;;;-1.28;100.00;-766.93;1712393;81;21048;-60
2022/01/27 08:08:33;;;;;;;51.18;14.68;;;;;;;-1.13;100.00;-1583.16;1704003;81;21572;-59
2022/01/27 08:11:00;;;;;;;55.03;16.23;;;;;;;-0.94;100.00;-3216.32;1708613;82;20998;-60
2022/01/27 08:13:26;;;;;;;90.83;28.73;;;;;;;-0.71;100.00;-4849.73;1707716;81;21072;-60
2022/01/27 08:15:55;;;;;;;88.90;29.75;;;;;;;-0.53;100.00;-6156.70;1694087;82;21101;-59
2022/01/27 08:18:21;;;;;;;54.63;22.15;;;;;;;-0.39;100.00;-6973.81;1711938;81;21044;-60
2022/01/27 08:20:49;;;;;;;64.40;24.23;;;;;;;-0.21;100.00;-7628.02;1703961;81;21131;-59
2022/01/27 08:23:16;;;;;;;58.52;21.12;;;;;;;-0.01;100.00;-7955.95;1703833;81;21523;-60
2022/01/27 08:25:48;;;;;;;55.35;18.87;;;;;;;0.22;100.00;-8447.61;1704289;81;21630;-60
2022/01/27 08:28:28;;;;;;;57.93;17.62;;;;;;;0.46;100.00;-8776.19;1697765;82;21566;-59
2022/01/27 08:30:45;;;;;;;49.10;17.60;;;;;;;0.69;100.00;-8941.46;1696745;82;21147;-60
2022/01/27 08:33:15;;;;;;;53.13;17.37;;;;;;;0.89;100.00;-9597.06;1701644;81;21142;-59
2022/01/27 08:35:37;;;;;;;51.83;18.12;;;;;;;1.13;100.00;-10744.03;1701345;81;21104;-60
2022/01/27 08:38:05;;;;;;;55.60;17.12;;;;;;;1.35;100.00;-11891.22;1704095;82;21088;-59
2022/01/27 08:40:34;;;;;;;48.23;20.10;;;;;;;1.53;100.00;-12711.13;1701601;81;22026;-60
2022/01/27 08:43:04;;;;;;;41.40;15.83;;;;;;;1.65;100.00;-13530.51;1701314;82;21052;-60
2022/01/27 08:45:31;;;;;;;36.53;13.72;;;;;;;1.75;100.00;-14186.08;1704544;82;21168;-58
2022/01/27 08:47:59;;;;;;;45.45;17.77;;;;;;;1.84;100.00;-14678.05;1701282;82;21045;-59
2022/01/27 08:50:27;;;;;;;39.83;17.02;;;;;;;1.88;100.00;-15005.67;1701551;82;21491;-60
2022/01/27 08:52:55;;;;;;;43.35;18.73;;;;;;;1.84;100.00;-14841.55;1702432;83;21418;-60
2022/01/27 08:55:22;;;;;;;72.42;23.65;;;;;;;1.85;100.00;-14841.82;1703705;82;21665;-59
2022/01/27 08:57:49;;;;;;;71.53;23.12;;;;;;;1.88;100.00;-14842.26;1708029;81;21086;-59
2022/01/27 09:00:21;;;;;;;52.55;20.37;;;;;;;1.92;100.00;-15006.49;1708181;82;21056;-60
2022/01/27 09:02:48;;;;;;;53.10;21.48;;;;;;;1.98;100.00;-15171.09;1707055;82;21076;-59
2022/01/27 09:05:15;;;;;;;38.15;18.48;;;;;;;2.02;100.00;-15335.16;1705562;81;21077;-61
2022/01/27 09:07:42;;;;;;;33.83;15.70;;;;;;;2.06;100.00;-15499.43;1707887;81;21129;-59
2022/01/27 09:10:10;;;;;;;31.62;14.13;;;;;;;2.16;100.00;-15828.39;1706716;81;23085;-59
2022/01/27 09:12:36;;;;;;;24.80;13.15;;;;;;;2.26;100.00;-16320.96;1719176;82;21148;-59
2022/01/27 09:15:07;;;;;;;29.32;13.95;;;;;;;2.37;100.00;-16813.63;1703666;82;20989;-58
2022/01/27 09:17:39;;;;;;;28.05;13.48;;;;;;;2.47;100.00;-17306.27;1716424;81;21096;-60
2022/01/27 09:20:08;;;;;;;27.77;14.15;;;;;;;2.57;100.00;-17799.21;1711385;82;21080;-60
2022/01/27 09:22:36;;;;;;;42.15;16.00;;;;;;;2.63;100.00;-17963.89;1699613;81;21125;-59
2022/01/27 09:25:12;;;;;;;49.75;17.57;;;;;;;2.68;100.00;-18128.70;1708755;81;21568;-60
2022/01/27 09:27:35;;;;;;;46.98;17.32;;;;;;;2.72;100.00;-18293.07;1715800;81;21653;-60
2022/01/27 09:30:02;;;;;;;51.25;18.52;;;;;;;2.76;100.00;-18457.56;1719230;81;21069;-59
2022/01/27 09:32:30;;;;;;;55.60;18.62;;;;;;;2.82;100.00;-18458.99;1716152;81;21079;-58
2022/01/27 09:34:57;;;;;;;50.35;18.70;;;;;;;2.88;100.00;-18623.75;1703968;81;21125;-59
2022/01/27 09:37:24;;;;;;;44.73;17.07;;;;;;;2.93;100.00;-18624.95;1682756;83;21524;-58
2022/01/27 09:39:52;;;;;;;23.25;10.60;;;;;;;2.96;100.00;-18789.26;1685392;83;21048;-58
2022/01/27 09:42:20;;;;;;;17.35;8.65;;;;;;;3.01;100.00;-18790.60;1690826;81;21588;-59
2022/01/27 09:44:52;;;;;;;19.05;8.80;;;;;;;3.08;100.00;-18955.79;1692531;82;21097;-60
2022/01/27 09:47:17;;;;;;;16.35;7.85;;;;;;;3.12;100.00;-18956.77;1708331;81;21812;-59
2022/01/27 09:49:52;;;;;;;17.12;8.30;;;;;;;3.15;100.00;-18957.38;1711425;81;21049;-60
2022/01/27 09:52:12;;;;;;;19.80;9.08;;;;;;;3.18;100.00;-18958.00;1712554;81;21603;-59
2022/01/27 09:54:40;;;;;;;19.98;8.20;;;;;;;3.22;100.00;-18795.33;1712239;81;21497;-60
2022/01/27 09:57:07;;;;;;;21.20;9.20;;;;;;;3.24;100.00;-18795.81;1708653;81;21123;-59
2022/01/27 09:59:34;;;;;;;20.82;9.48;;;;;;;3.27;100.00;-18960.20;1712850;81;21076;-59
2022/01/27 10:02:07;;;;;;;15.65;8.03;;;;;;;3.33;100.00;-18961.55;1715334;81;21123;-60
2022/01/27 10:04:50;;;;;;;15.75;7.70;;;;;;;3.36;100.00;-18962.41;1711559;81;21710;-62
2022/01/27 10:07:23;;;;;;;20.72;7.95;;;;;;;3.39;100.00;-18963.02;1716850;81;21071;-59
2022/01/27 10:10:11;;;;;;;16.62;8.68;;;;;;;3.42;100.00;-18963.88;1713675;82;21100;-60
2022/01/27 10:12:45;;;;;;;11.83;6.42;;;;;;;3.47;100.00;-18964.98;1711407;81;21102;-59
2022/01/27 10:15:20;;;;;;;11.12;6.05;;;;;;;3.47;100.00;-18801.14;1691775;82;21456;-59
2022/01/27 10:18:17;;;;;;;9.95;5.25;;;;;;;3.49;100.00;-18801.63;1690246;83;21100;-59
2022/01/27 10:20:52;;;;;;;12.58;5.80;;;;;;;3.48;100.00;-18637.66;1682560;83;21563;-60
2022/01/27 10:23:22;;;;;;;9.20;5.00;;;;;;;3.49;100.00;-18474.16;1686360;83;21065;-59
2022/01/27 10:25:56;;;;;;;8.90;4.85;;;;;;;3.48;100.00;-18473.93;1688000;83;21672;-59
2022/01/27 10:31:23;;;;;;;10.58;4.75;;;;;;;3.42;100.00;-18309.01;1684354;83;21109;-60
2022/01/27 10:34:01;;;;;;;9.68;4.83;;;;;;;3.36;100.00;-17980.15;1683777;83;21104;-59
2022/01/27 10:36:35;;;;;;;9.53;4.97;;;;;;;3.32;100.00;-17815.51;1681372;83;21080;-61
2022/01/27 10:39:17;;;;;;;12.07;5.75;;;;;;;3.25;100.00;-17650.32;1675714;83;21954;-59
2022/01/27 10:42:08;;;;;;;9.55;5.25;;;;;;;3.19;100.00;-17321.55;1684678;83;21034;-59
2022/01/27 10:44:55;;;;;;;10.38;5.17;;;;;;;3.16;100.00;-17320.89;1685751;83;21167;-59
2022/01/27 10:47:19;;;;;;;10.35;5.20;;;;;;;3.07;100.00;-17319.04;1644549;85;21061;-59
2022/01/27 10:49:52;;;;;;;11.50;5.87;;;;;;;3.05;100.00;-17154.91;1684154;83;21076;-60
2022/01/27 10:52:39;;;;;;;10.32;5.25;;;;;;;3.03;100.00;-17318.17;1679692;82;21065;-61
2022/01/27 10:55:18;;;;;;;10.55;5.30;;;;;;;3.02;100.00;-17317.95;1680799;84;21070;-60
2022/01/27 10:57:52;;;;;;;10.68;5.80;;;;;;;2.97;100.00;-17153.19;1682578;84;21105;-61
2022/01/27 11:00:21;;;;;;;12.25;5.37;;;;;;;2.95;100.00;-16989.08;1683509;83;21406;-60
2022/01/27 11:02:59;;;;;;;10.40;5.50;;;;;;;2.94;100.00;-17152.54;1682426;83;21174;-59
2022/01/27 11:05:29;;;;;;;12.43;5.08;;;;;;;2.95;100.00;-17152.75;1680618;83;21221;-59
2022/01/27 11:07:58;;;;;;;10.23;5.15;;;;;;;2.95;100.00;-17316.42;1651003;83;20968;-61
2022/01/27 11:10:25;;;;;;;13.60;5.87;;;;;;;2.96;100.00;-17480.29;1678892;83;21088;-60
2022/01/27 11:12:53;;;;;;;15.15;6.08;;;;;;;2.95;100.00;-17480.07;1683323;83;21700;-60
2022/01/27 11:15:20;;;;;;;14.47;5.97;;;;;;;2.94;100.00;-17316.20;1715534;81;21085;-59
2022/01/27 11:17:49;;;;;;;12.20;6.37;;;;;;;2.93;100.00;-17315.98;1712770;81;22069;-59
2022/01/27 11:28:05;;;;;;;15.55;7.00;;;;;;;2.84;100.00;-16986.85;1649225;81;21085;-58
2022/01/27 11:31:07;;;;;;;12.20;6.10;;;;;;;2.79;100.00;-16822.25;1706630;81;22622;-60
2022/01/27 11:33:36;;;;;;;11.60;6.33;;;;;;;2.74;100.00;-16493.92;1702470;81;21106;-58
2022/01/27 11:36:15;;;;;;;11.90;5.87;;;;;;;2.69;100.00;-16329.26;1710923;81;21556;-58
2022/01/27 11:38:45;;;;;;;14.33;7.08;;;;;;;2.65;100.00;-16328.55;1704550;81;21053;-58
2022/01/27 11:41:45;;;;;;;12.65;6.25;;;;;;;2.63;100.00;-16164.42;1707902;81;21151;-59
2022/01/27 11:44:32;;;;;;;12.73;6.33;;;;;;;2.57;100.00;-15999.80;1712999;81;21132;-60
2022/01/27 11:47:18;;;;;;;16.40;6.28;;;;;;;2.51;100.00;-15835.00;1713387;81;21102;-58
2022/01/27 11:50:06;;;;;;;12.98;6.42;;;;;;;2.43;100.00;-15669.84;1709698;81;21094;-60
2022/01/27 11:52:37;;;;;;;11.45;5.30;;;;;;;2.35;100.00;-15504.72;1715259;81;21091;-59
2022/01/27 11:55:30;;;;;;;13.70;6.45;;;;;;;2.32;100.00;-15340.66;1693615;82;21085;-59
2022/01/27 11:57:59;;;;;;;11.33;5.87;;;;;;;2.22;100.00;-15011.73;1702560;81;21051;-61
2022/01/27 12:00:32;;;;;;;13.58;6.92;;;;;;;2.22;100.00;-15175.31;1707340;81;21057;-61
2022/01/27 12:03:07;;;;;;;12.43;6.15;;;;;;;2.23;100.00;-15502.64;1706747;82;21082;-60
2022/01/27 12:05:41;;;;;;;10.75;5.62;;;;;;;2.23;100.00;-15666.11;1704476;81;21052;-60
2022/01/27 12:08:20;;;;;;;10.80;5.60;;;;;;;2.22;100.00;-15829.46;1707286;81;21490;-60
2022/01/27 12:10:55;;;;;;;13.50;6.10;;;;;;;2.21;100.00;-15992.90;1703856;81;21136;-59